Time;durP1;ratioP1;P1;durP2;ratioP2;P2;SDS_P1;SDS_P2;PMS_P1;PMS_P2;Temp;Humidity;BMP_temperature;BMP_pressure;BME280_temperature;BME280_humidity;BME280_pressure;Samples;Min_cycle;Max_cycle;Signal;HPM_P1;HPM_P2
2023/12/01 00:01:33;;;;;;;116.80;40.90;;;;;;;;;;6344852;22;19995;-92
2023/12/01 00:04:05;;;;;;;132.20;43.50;;;;;;;;;;6338208;22;19998;-93
2023/12/01 00:06:38;;;;;;;145.37;45.67;;;;;;;;;;6319200;22;20139;-94
2023/12/01 00:09:52;;;;;;;145.00;44.33;;;;;;;;;;6324812;22;20005;-92
2023/12/01 00:12:31;;;;;;;172.03;45.90;;;;;;;;;;6317700;22;20020;-92
2023/12/01 00:14:59;;;;;;;152.23;45.23;;;;;;;;;;6317076;22;20084;-92
2023/12/01 00:17:32;;;;;;;159.27;46.23;;;;;;;;;;6325658;22;19994;-93
2023/12/01 00:20:06;;;;;;;141.80;46.07;;;;;;;;;;6316957;22;20005;-92
2023/12/01 00:22:35;;;;;;;121.33;41.83;;;;;;;;;;6344597;22;20061;-93
2023/12/01 00:28:26;;;;;;;112.07;39.33;;;;;;;;;;6343847;22;20101;-94
2023/12/01 00:31:07;;;;;;;100.40;36.33;;;;;;;;;;6297118;22;19998;-92
2023/12/01 00:33:39;;;;;;;97.60;35.37;;;;;;;;;;6344682;22;19994;-94
2023/12/01 00:36:15;;;;;;;94.20;34.07;;;;;;;;;;6344280;22;19998;-93
2023/12/01 00:44:46;;;;;;;102.27;35.43;;;;;;;;;;6360811;22;20025;-93
2023/12/01 00:47:22;;;;;;;104.03;35.80;;;;;;;;;;6342926;22;20045;-92
2023/12/01 00:49:48;;;;;;;103.13;35.40;;;;;;;;;;6342471;22;20417;-93
2023/12/01 00:52:18;;;;;;;98.60;34.60;;;;;;;;;;6343976;22;20070;-93
2023/12/01 00:54:52;;;;;;;96.38;34.63;;;;;;;;;;6319172;22;20004;-93
2023/12/01 00:57:17;;;;;;;80.87;28.90;;;;;;;;;;6371547;22;20002;-94
2023/12/01 00:59:43;;;;;;;86.23;29.60;;;;;;;;;;6343220;22;19990;-91
2023/12/01 01:02:16;;;;;;;83.43;29.90;;;;;;;;;;6343889;22;20077;-93
2023/12/01 01:04:47;;;;;;;79.07;28.50;;;;;;;;;;6317576;22;19994;-92
2023/12/01 01:07:19;;;;;;;74.35;26.73;;;;;;;;;;6346681;22;19998;-92
2023/12/01 01:09:59;;;;;;;79.63;27.67;;;;;;;;;;6345351;22;20066;-92
2023/12/01 01:12:30;;;;;;;74.90;27.98;;;;;;;;;;6343652;22;20077;-93
2023/12/01 01:14:56;;;;;;;73.97;28.43;;;;;;;;;;6372519;22;19999;-93
2023/12/01 01:17:24;;;;;;;79.00;28.77;;;;;;;;;;6343860;22;20001;-93
2023/12/01 01:19:55;;;;;;;72.53;29.17;;;;;;;;;;6317618;22;19995;-93
2023/12/01 01:22:23;;;;;;;78.90;28.87;;;;;;;;;;6344407;22;20466;-94
2023/12/01 01:24:51;;;;;;;73.03;28.63;;;;;;;;;;6343661;22;20081;-92
2023/12/01 01:27:17;;;;;;;77.27;28.40;;;;;;;;;;6343612;22;20374;-93
2023/12/01 01:29:53;;;;;;;78.43;28.87;;;;;;;;;;6343301;22;20005;-92
2023/12/01 01:32:22;;;;;;;89.37;30.80;;;;;;;;;;6317817;22;20070;-92
2023/12/01 01:34:48;;;;;;;93.33;31.70;;;;;;;;;;6344554;22;20002;-94
2023/12/01 01:37:13;;;;;;;93.43;31.30;;;;;;;;;;6349201;22;20050;-92
2023/12/01 01:39:39;;;;;;;97.37;32.70;;;;;;;;;;6344385;22;20009;-91
2023/12/01 01:42:05;;;;;;;92.77;32.97;;;;;;;;;;6371825;22;19986;-93
2023/12/01 01:44:31;;;;;;;98.97;33.13;;;;;;;;;;6371293;22;20006;-92
2023/12/01 01:47:00;;;;;;;95.73;33.23;;;;;;;;;;6362190;22;20036;-92
2023/12/01 01:49:26;;;;;;;95.43;33.23;;;;;;;;;;6343429;22;19998;-92
2023/12/01 01:51:56;;;;;;;99.87;34.37;;;;;;;;;;6316392;22;20009;-94
2023/12/01 01:54:23;;;;;;;103.73;34.57;;;;;;;;;;6370912;22;19995;-94
2023/12/01 01:56:55;;;;;;;107.37;34.40;;;;;;;;;;6343505;22;20333;-92
2023/12/01 01:59:22;;;;;;;99.63;34.07;;;;;;;;;;6369134;22;19991;-92
2023/12/01 02:01:59;;;;;;;103.20;34.27;;;;;;;;;;6319269;22;19991;-92
2023/12/01 02:07:28;;;;;;;97.83;34.77;;;;;;;;;;6365567;22;19998;-92
2023/12/01 02:09:56;;;;;;;111.30;36.03;;;;;;;;;;6342909;22;19994;-92
2023/12/01 02:12:22;;;;;;;104.83;35.57;;;;;;;;;;6316387;22;19998;-92
2023/12/01 02:14:47;;;;;;;104.40;36.43;;;;;;;;;;6343319;22;20065;-92
2023/12/01 02:17:13;;;;;;;110.23;37.83;;;;;;;;;;6343478;22;20051;-93
2023/12/01 02:19:41;;;;;;;101.00;36.87;;;;;;;;;;6343594;22;20001;-94
2023/12/01 02:22:07;;;;;;;102.13;37.70;;;;;;;;;;6342802;22;20003;-96
2023/12/01 02:24:32;;;;;;;105.93;36.43;;;;;;;;;;6342913;22;20020;-92
2023/12/01 02:27:00;;;;;;;90.50;35.47;;;;;;;;;;6317369;22;20040;-92
2023/12/01 02:29:25;;;;;;;91.80;35.13;;;;;;;;;;6370965;22;20002;-92
2023/12/01 02:31:51;;;;;;;98.43;36.07;;;;;;;;;;6344938;22;19994;-92
2023/12/01 02:34:21;;;;;;;88.00;34.40;;;;;;;;;;6344951;22;20005;-92
2023/12/01 02:36:46;;;;;;;85.85;34.28;;;;;;;;;;6345544;22;20433;-93
2023/12/01 02:39:13;;;;;;;89.63;34.47;;;;;;;;;;6352714;22;19990;-92
2023/12/01 02:41:39;;;;;;;81.53;33.23;;;;;;;;;;6355787;22;19995;-93
2023/12/01 02:44:04;;;;;;;76.80;31.83;;;;;;;;;;6368849;22;19994;-93
2023/12/01 02:46:39;;;;;;;73.40;31.13;;;;;;;;;;6373972;22;19983;-93
2023/12/01 02:49:05;;;;;;;74.25;30.92;;;;;;;;;;6373258;22;19998;-93
2023/12/01 02:51:36;;;;;;;69.78;29.17;;;;;;;;;;6344468;22;20061;-92
2023/12/01 02:54:11;;;;;;;78.13;32.70;;;;;;;;;;6371623;22;20086;-91
2023/12/01 02:56:39;;;;;;;67.43;30.02;;;;;;;;;;6397631;22;20026;-93
2023/12/01 02:59:05;;;;;;;64.40;28.67;;;;;;;;;;6368319;22;19999;-92
2023/12/01 03:01:31;;;;;;;64.28;29.58;;;;;;;;;;6368861;22;19994;-92
2023/12/01 03:03:56;;;;;;;65.30;29.30;;;;;;;;;;6345002;22;20017;-92
2023/12/01 03:06:22;;;;;;;63.97;28.88;;;;;;;;;;6343629;22;19994;-92
2023/12/01 03:08:50;;;;;;;62.93;28.87;;;;;;;;;;6343383;22;20080;-92
2023/12/01 03:11:21;;;;;;;62.20;28.48;;;;;;;;;;6318259;22;20078;-93
2023/12/01 03:13:46;;;;;;;59.87;26.57;;;;;;;;;;6344865;22;19994;-92
2023/12/01 03:16:19;;;;;;;57.72;26.77;;;;;;;;;;6343002;22;20435;-93
2023/12/01 03:18:45;;;;;;;62.58;28.23;;;;;;;;;;6370885;22;20008;-92
2023/12/01 03:21:12;;;;;;;59.37;27.30;;;;;;;;;;6343054;22;20432;-93
2023/12/01 03:23:41;;;;;;;60.38;28.50;;;;;;;;;;6342612;22;20003;-93
2023/12/01 03:26:08;;;;;;;58.20;27.85;;;;;;;;;;6315576;22;19994;-94
2023/12/01 03:28:35;;;;;;;59.85;27.77;;;;;;;;;;6342611;22;20051;-92
2023/12/01 03:31:03;;;;;;;61.20;28.33;;;;;;;;;;6368863;22;20001;-93
2023/12/01 03:33:31;;;;;;;60.75;28.92;;;;;;;;;;6316608;22;19994;-93
2023/12/01 03:35:59;;;;;;;53.22;25.52;;;;;;;;;;6342467;22;20451;-93
2023/12/01 03:38:27;;;;;;;53.42;26.15;;;;;;;;;;6316500;22;19994;-93
2023/12/01 03:40:53;;;;;;;56.22;25.80;;;;;;;;;;6342332;22;20440;-93
2023/12/01 03:43:23;;;;;;;51.67;24.95;;;;;;;;;;6342740;22;19994;-93
2023/12/01 03:45:49;;;;;;;49.45;25.25;;;;;;;;;;6370728;22;20003;-93
2023/12/01 03:48:15;;;;;;;53.25;25.20;;;;;;;;;;6342843;22;20018;-93
2023/12/01 03:50:45;;;;;;;47.38;22.77;;;;;;;;;;6342790;22;20040;-93
2023/12/01 03:53:11;;;;;;;40.38;22.00;;;;;;;;;;6343551;22;20033;-91
2023/12/01 03:55:37;;;;;;;44.40;23.33;;;;;;;;;;6343359;22;19998;-93
2023/12/01 03:58:17;;;;;;;43.35;20.95;;;;;;;;;;6345056;22;20013;-93
2023/12/01 04:00:57;;;;;;;40.43;21.40;;;;;;;;;;6316452;22;19994;-94
2023/12/01 04:03:58;;;;;;;;;;;;;;;;;;;;;
2023/12/01 04:06:44;;;;;;;;;;;;;;;;;;;;;
2023/12/01 04:09:16;;;;;;;42.50;21.95;;;;;;;;;;6349133;22;20081;-93
2023/12/01 04:12:01;;;;;;;38.55;19.90;;;;;;;;;;6335459;22;20015;-92
2023/12/01 04:14:28;;;;;;;39.03;20.20;;;;;;;;;;6339282;22;20010;-93
2023/12/01 04:17:17;;;;;;;42.22;20.77;;;;;;;;;;6352281;22;20010;-94
2023/12/01 04:19:49;;;;;;;38.75;20.17;;;;;;;;;;6317320;22;20021;-94
2023/12/01 04:22:18;;;;;;;39.10;21.63;;;;;;;;;;6341907;22;20425;-93
2023/12/01 04:24:43;;;;;;;42.03;20.33;;;;;;;;;;6341757;22;20333;-93
2023/12/01 04:27:15;;;;;;;40.00;21.15;;;;;;;;;;6313202;22;20022;-91
2023/12/01 04:29:44;;;;;;;38.35;20.05;;;;;;;;;;6315341;22;19998;-93
2023/12/01 04:32:28;;;;;;;38.47;20.67;;;;;;;;;;6318442;22;20042;-93
2023/12/01 04:34:54;;;;;;;38.17;20.23;;;;;;;;;;6341983;22;20001;-92
2023/12/01 04:37:31;;;;;;;39.45;20.52;;;;;;;;;;6342162;22;20029;-92
2023/12/01 04:40:14;;;;;;;;;;;;;;;;;;;;;
2023/12/01 04:43:32;;;;;;;38.10;20.02;;;;;;;;;;6344331;22;19995;-95
2023/12/01 04:46:39;;;;;;;37.38;20.35;;;;;;;;;;6324355;22;20474;-93
2023/12/01 04:49:16;;;;;;;42.30;21.10;;;;;;;;;;6259055;22;20006;-95
2023/12/01 04:52:25;;;;;;;39.80;21.35;;;;;;;;;;6248558;22;20099;-94
2023/12/01 04:55:26;;;;;;;;;;;;;;;;;;;;;
2023/12/01 05:12:27;;;;;;;51.40;25.20;;;;;;;;;;6383605;22;20021;-94
2023/12/01 05:15:05;;;;;;;53.47;25.58;;;;;;;;;;6315023;22;20003;-93
2023/12/01 05:24:38;;;;;;;58.40;26.42;;;;;;;;;;6042137;23;20041;-94
2023/12/01 05:27:47;;;;;;;54.20;24.75;;;;;;;;;;6208997;23;20011;-95
2023/12/01 05:30:56;;;;;;;53.47;26.50;;;;;;;;;;6190657;23;20473;-93
2023/12/01 05:33:38;;;;;;;55.17;26.02;;;;;;;;;;6188495;23;20075;-93
2023/12/01 05:36:49;;;;;;;;;;;;;;;;;;;;;
2023/12/01 05:39:36;;;;;;;;;;;;;;;;;;;;;
2023/12/01 05:43:02;;;;;;;55.30;26.30;;;;;;;;;;6162611;23;20056;-95
2023/12/01 05:46:45;;;;;;;52.83;25.43;;;;;;;;;;6190646;23;20028;-93
2023/12/01 05:56:28;;;;;;;;;;;;;;;;;;;;;
2023/12/01 05:59:48;;;;;;;;;;;;;;;;;;;;;
2023/12/01 06:03:34;;;;;;;51.95;24.30;;;;;;;;;;6151454;23;20056;-94
2023/12/01 06:09:59;;;;;;;57.95;25.45;;;;;;;;;;6098359;23;20345;-94
2023/12/01 06:16:52;;;;;;;;;;;;;;;;;;;;;
2023/12/01 06:23:24;;;;;;;53.33;23.23;;;;;;;;;;6071642;23;20135;-93
2023/12/01 06:26:24;;;;;;;;;;;;;;;;;;;;;
2023/12/01 06:36:07;;;;;;;51.93;23.90;;;;;;;;;;6165082;23;20194;-93
2023/12/01 06:39:26;;;;;;;;;;;;;;;;;;;;;
2023/12/01 06:42:29;;;;;;;;;;;;;;;;;;;;;
2023/12/01 06:49:32;;;;;;;45.92;22.35;;;;;;;;;;6146700;23;20041;-93
2023/12/01 06:52:02;;;;;;;47.80;22.03;;;;;;;;;;6180661;23;19992;-94
2023/12/01 06:54:39;;;;;;;47.77;21.97;;;;;;;;;;6205448;23;20005;-92
2023/12/01 06:57:31;;;;;;;44.53;21.88;;;;;;;;;;6370511;22;20320;-94
2023/12/01 07:00:00;;;;;;;46.90;21.70;;;;;;;;;;6321616;22;20001;-91
2023/12/01 07:02:30;;;;;;;45.53;22.13;;;;;;;;;;6321647;22;20077;-92
2023/12/01 07:04:56;;;;;;;45.03;21.77;;;;;;;;;;6346235;22;20066;-95
2023/12/01 07:07:30;;;;;;;43.13;21.07;;;;;;;;;;6344823;22;20022;-95
2023/12/01 07:09:58;;;;;;;44.53;20.47;;;;;;;;;;6315863;22;19998;-94
2023/12/01 07:12:43;;;;;;;46.40;21.97;;;;;;;;;;6344928;22;20064;-93
2023/12/01 07:15:11;;;;;;;44.63;21.93;;;;;;;;;;6343818;22;19994;-91
2023/12/01 07:17:42;;;;;;;42.70;20.07;;;;;;;;;;6370184;22;20073;-92
2023/12/01 07:20:14;;;;;;;48.72;22.70;;;;;;;;;;6344428;22;19994;-92
2023/12/01 07:22:43;;;;;;;46.30;20.63;;;;;;;;;;6319402;22;19990;-93
2023/12/01 07:25:11;;;;;;;46.17;21.57;;;;;;;;;;6345000;22;20514;-93
2023/12/01 07:27:39;;;;;;;46.27;22.50;;;;;;;;;;6345413;22;19994;-92
2023/12/01 07:30:06;;;;;;;49.53;22.03;;;;;;;;;;6345267;22;20035;-93
2023/12/01 07:32:32;;;;;;;46.83;21.73;;;;;;;;;;6317227;22;20505;-92
2023/12/01 07:35:00;;;;;;;51.77;24.33;;;;;;;;;;6344277;22;20378;-95
2023/12/01 07:37:25;;;;;;;49.77;22.87;;;;;;;;;;6344361;22;20021;-94
2023/12/01 07:39:51;;;;;;;51.87;22.50;;;;;;;;;;6317790;22;20074;-93
2023/12/01 07:42:18;;;;;;;49.57;22.10;;;;;;;;;;6344320;22;19991;-93
2023/12/01 07:44:51;;;;;;;51.10;23.37;;;;;;;;;;6345277;22;20009;-93
2023/12/01 07:47:19;;;;;;;50.90;22.20;;;;;;;;;;6322839;22;20002;-92
2023/12/01 07:49:50;;;;;;;47.60;21.97;;;;;;;;;;6355516;22;19998;-93
2023/12/01 07:52:17;;;;;;;54.70;24.03;;;;;;;;;;6346109;22;20001;-92
2023/12/01 07:54:42;;;;;;;51.03;23.47;;;;;;;;;;6347390;22;20049;-92
2023/12/01 07:57:10;;;;;;;52.67;23.33;;;;;;;;;;6319022;22;20437;-93
2023/12/01 07:59:36;;;;;;;56.07;23.57;;;;;;;;;;6345265;22;19994;-93
2023/12/01 08:02:01;;;;;;;51.57;21.67;;;;;;;;;;6346173;22;20001;-92
2023/12/01 08:04:29;;;;;;;45.60;21.13;;;;;;;;;;6346956;22;19987;-93
2023/12/01 08:06:58;;;;;;;41.67;20.53;;;;;;;;;;6343293;22;20002;-92
2023/12/01 08:09:24;;;;;;;45.77;21.63;;;;;;;;;;6345466;22;20003;-95
2023/12/01 08:11:49;;;;;;;43.77;20.07;;;;;;;;;;6370512;22;20085;-93
2023/12/01 08:14:15;;;;;;;41.17;19.47;;;;;;;;;;6370702;22;19998;-93
2023/12/01 08:16:43;;;;;;;45.97;21.00;;;;;;;;;;6345575;22;20022;-93
2023/12/01 08:19:11;;;;;;;47.87;19.80;;;;;;;;;;6347285;22;19994;-92
2023/12/01 08:21:37;;;;;;;44.60;20.47;;;;;;;;;;6345401;22;19995;-92
2023/12/01 08:24:06;;;;;;;44.80;20.47;;;;;;;;;;6344334;22;20448;-93
2023/12/01 08:26:32;;;;;;;45.30;20.40;;;;;;;;;;6335310;22;19986;-90
2023/12/01 08:29:00;;;;;;;45.27;21.40;;;;;;;;;;6372021;22;20033;-92
2023/12/01 08:31:28;;;;;;;45.50;21.80;;;;;;;;;;6345131;22;20012;-93
2023/12/01 08:33:56;;;;;;;49.77;22.47;;;;;;;;;;6371996;22;19990;-94
2023/12/01 08:36:21;;;;;;;44.93;22.10;;;;;;;;;;6345562;22;20056;-92
2023/12/01 08:39:09;;;;;;;51.90;21.80;;;;;;;;;;6344173;22;20421;-94
